createdAt,value
2023-04-09T00:02:04.825Z,0
2023-04-09T00:07:22.202Z,0
2023-04-09T00:12:39.577Z,0
2023-04-09T00:17:59.079Z,0
2023-04-09T00:23:16.516Z,0
2023-04-09T00:28:33.631Z,0
2023-04-09T00:39:49.133Z,0
2023-04-09T00:45:16.874Z,0
2023-04-09T00:50:34.544Z,0
2023-04-09T00:55:52.086Z,0
2023-04-09T01:01:09.633Z,0
2023-04-09T01:06:27.132Z,0
2023-04-09T01:11:44.534Z,0
2023-04-09T01:17:01.717Z,0
2023-04-09T01:22:18.906Z,0
2023-04-09T01:32:57.017Z,0
2023-04-09T01:38:19.588Z,0
2023-04-09T01:43:37.553Z,0
2023-04-09T01:48:54.848Z,0
2023-04-09T01:54:12.279Z,0
2023-04-09T01:59:29.600Z,0
2023-04-09T02:04:46.954Z,0
2023-04-09T02:10:04.189Z,0
2023-04-09T02:20:41.722Z,0
2023-04-09T02:26:01.103Z,0
2023-04-09T02:31:18.581Z,0
2023-04-09T02:36:49.021Z,0
2023-04-09T02:42:06.421Z,0
2023-04-09T02:47:24.056Z,0
2023-04-09T02:52:41.362Z,0
2023-04-09T02:57:58.817Z,0
2023-04-09T03:03:16.256Z,0
2023-04-09T03:14:01.171Z,0
2023-04-09T03:19:18.536Z,0
2023-04-09T03:24:35.782Z,0
2023-04-09T03:29:52.931Z,0
2023-04-09T03:40:59.679Z,0
2023-04-09T03:46:16.971Z,0
2023-04-09T03:51:34.198Z,0
2023-04-09T03:56:51.487Z,0
2023-04-09T04:07:32.084Z,0
2023-04-09T04:12:49.410Z,0
2023-04-09T04:18:09.290Z,0
2023-04-09T04:23:26.877Z,0
2023-04-09T04:29:05.540Z,0
2023-04-09T04:34:30.251Z,0.5
2023-04-09T04:39:47.207Z,29.2
2023-04-09T04:45:04.042Z,66.2
2023-04-09T04:50:21.011Z,133.8
2023-04-09T04:55:41.213Z,235
2023-04-09T05:01:07.269Z,373.3
2023-04-09T05:06:24.351Z,542.5
2023-04-09T05:11:41.353Z,755
2023-04-09T05:16:58.286Z,1014.6
2023-04-09T05:22:15.408Z,1254.6
2023-04-09T05:27:34.304Z,1540
2023-04-09T05:32:51.806Z,1800.4
2023-04-09T05:38:11.865Z,1992.5
2023-04-09T05:43:28.890Z,2252.5
2023-04-09T05:48:45.935Z,2440
2023-04-09T05:54:03.349Z,2709.6
2023-04-09T05:59:20.289Z,2910.4
2023-04-09T06:04:37.364Z,3316.7
2023-04-09T06:09:54.525Z,3617.9
2023-04-09T06:15:15.990Z,4253.8
2023-04-09T06:20:33.335Z,5583.3
2023-04-09T06:31:11.204Z,7327.9
2023-04-09T06:36:35.892Z,7485.4
2023-04-09T06:41:53.221Z,8031.2
2023-04-09T06:47:10.302Z,8168.8
2023-04-09T06:52:27.673Z,7116.2
2023-04-09T06:57:45.160Z,6453.8
2023-04-09T07:03:02.767Z,6142.9
2023-04-09T07:13:45.957Z,6389.2
2023-04-09T07:19:20.393Z,6442.1
2023-04-09T07:24:37.605Z,6442.5
2023-04-09T07:29:55.205Z,6652.1
2023-04-09T07:35:12.475Z,6632.5
2023-04-09T07:40:32.422Z,7699.6
2023-04-09T07:45:50.495Z,13085.8
2023-04-09T07:51:08.500Z,13614.6
2023-04-09T07:56:26.421Z,20046.7
2023-04-09T08:01:43.836Z,16876.2
2023-04-09T08:07:01.770Z,14240
2023-04-09T08:12:19.492Z,17030
2023-04-09T08:17:37.371Z,37321.7
2023-04-09T08:22:55.827Z,28879.2
2023-04-09T08:28:16.436Z,28940.8
2023-04-09T08:33:36.524Z,30362.5
2023-04-09T08:38:54.621Z,30763.3
2023-04-09T08:44:15.374Z,31893.3
2023-04-09T08:49:32.999Z,32793.3
2023-04-09T08:54:50.234Z,34092.5
2023-04-09T09:00:10.457Z,36001.7
2023-04-09T09:05:28.328Z,35946.7
2023-04-09T09:10:45.378Z,37280
2023-04-09T09:16:03.853Z,39224.2
2023-04-09T09:21:21.242Z,39500
2023-04-09T09:26:41.134Z,40613.3
2023-04-09T09:31:58.601Z,41190
2023-04-09T09:37:15.891Z,41540.8
2023-04-09T09:42:32.905Z,39449.2
2023-04-09T09:47:51.249Z,40875
2023-04-09T09:53:08.194Z,43435.8
2023-04-09T09:58:25.389Z,42880.8
2023-04-09T10:03:42.698Z,43650
2023-04-09T10:08:59.642Z,44348.3
2023-04-09T10:14:16.930Z,46295
2023-04-09T10:19:36.527Z,46772.5
2023-04-09T10:24:53.879Z,44619.2
2023-04-09T10:30:11.444Z,46051.7
2023-04-09T10:35:32.977Z,46755.8
2023-04-09T10:40:50.717Z,45814.2
2023-04-09T10:46:07.492Z,49155
2023-04-09T10:52:49.956Z,50373.6
2023-04-09T10:58:10.559Z,44451.7
2023-04-09T11:03:38.598Z,44860.8
2023-04-09T11:08:55.948Z,48370
2023-04-09T11:14:13.190Z,48372.5
2023-04-09T11:19:30.296Z,47665
2023-04-09T11:24:47.807Z,46760.8
2023-04-09T11:30:05.096Z,46294.2
2023-04-09T11:35:22.300Z,45675.8
2023-04-09T11:40:39.406Z,44197.5
2023-04-09T11:45:57.704Z,47435.8
2023-04-09T11:51:14.873Z,43626.7
2023-04-09T11:56:33.520Z,46389.2
2023-04-09T12:01:50.681Z,46580.8
2023-04-09T12:07:07.882Z,44901.7
2023-04-09T12:12:25.135Z,44854.2
2023-04-09T12:17:42.512Z,44638.3
2023-04-09T12:23:16.990Z,43838.3
2023-04-09T12:34:35.901Z,41086.7
2023-04-09T12:39:53.490Z,40800.8
2023-04-09T12:45:10.509Z,40170.8
2023-04-09T12:50:27.146Z,41866.7
2023-04-09T12:55:44.062Z,41280
2023-04-09T13:01:01.313Z,35338.3
2023-04-09T13:06:18.563Z,32315.8
2023-04-09T13:11:38.347Z,33466.7
2023-04-09T13:16:56.055Z,33475.8
2023-04-09T13:22:15.289Z,24960
2023-04-09T13:27:32.543Z,31315.8
2023-04-09T13:32:49.691Z,33880
2023-04-09T13:38:44.374Z,33811.7
2023-04-09T13:44:17.390Z,27659.2
2023-04-09T13:49:32.924Z,32502.5
2023-04-09T13:54:50.125Z,31059.2
2023-04-09T14:00:07.547Z,29906.7
2023-04-09T14:05:27.107Z,28830
2023-04-09T14:10:43.977Z,27259.2
2023-04-09T14:16:01.123Z,29617.5
2023-04-09T14:21:18.977Z,28834.2
2023-04-09T14:26:35.879Z,21986.7
2023-04-09T14:32:02.493Z,23795
2023-04-09T14:37:19.967Z,24861.2
2023-04-09T14:47:57.913Z,24373.3
2023-04-09T14:53:14.639Z,19821.7
2023-04-09T14:58:37.145Z,16451.2
2023-04-09T15:03:51.340Z,7220
2023-04-09T15:09:07.156Z,6651.2
2023-04-09T15:19:42.853Z,5258.3
2023-04-09T15:25:02.883Z,5373.3
2023-04-09T15:30:19.600Z,5074.6
2023-04-09T15:35:36.494Z,5997.1
2023-04-09T15:40:54.648Z,7435.4
2023-04-09T15:46:11.902Z,6295
2023-04-09T15:51:31.092Z,6471.7
2023-04-09T15:56:48.520Z,6994.2
2023-04-09T16:02:07.613Z,4015.4
2023-04-09T16:07:24.469Z,3683.8
2023-04-09T16:12:41.346Z,3576.7
2023-04-09T16:17:58.219Z,3475.8
2023-04-09T16:23:15.135Z,3307.1
2023-04-09T16:28:31.996Z,3221.3
2023-04-09T16:33:50.915Z,3085.8
2023-04-09T16:39:25.310Z,2986.7
2023-04-09T16:44:42.844Z,2880.8
2023-04-09T16:50:07.082Z,2814.6
2023-04-09T16:55:24.373Z,2672.1
2023-04-09T17:00:41.355Z,2476.7
2023-04-09T17:05:58.057Z,2363.3
2023-04-09T17:16:35.684Z,1998.3
2023-04-09T17:21:53.081Z,1868.8
2023-04-09T17:27:10.105Z,1711.3
2023-04-09T17:32:27.010Z,1586.3
2023-04-09T17:38:12.485Z,1418.8
2023-04-09T17:43:29.760Z,1230.4
2023-04-09T17:48:46.569Z,1090.8
2023-04-09T17:54:03.395Z,913.7
2023-04-09T18:00:05.212Z,741.7
2023-04-09T18:05:22.826Z,506.7
2023-04-09T18:10:39.930Z,341.3
2023-04-09T18:15:56.684Z,220.4
2023-04-09T18:21:31.080Z,135
2023-04-09T18:26:48.109Z,72.9
2023-04-09T18:32:05.104Z,35.4
2023-04-09T18:37:31.178Z,15.7
2023-04-09T18:43:05.667Z,0
2023-04-09T18:48:23.174Z,0
2023-04-09T18:53:40.609Z,0
2023-04-09T18:58:57.796Z,0
2023-04-09T19:04:15.317Z,0
2023-04-09T19:09:32.718Z,0
2023-04-09T19:14:49.949Z,0
2023-04-09T19:20:10.335Z,0
2023-04-09T19:25:27.659Z,0
2023-04-09T19:30:44.928Z,0
2023-04-09T19:36:22.932Z,0
2023-04-09T19:41:40.516Z,0
2023-04-09T19:46:57.697Z,0
2023-04-09T19:57:35.603Z,0
2023-04-09T20:02:53.166Z,0
2023-04-09T20:08:13.487Z,0
2023-04-09T20:13:31.746Z,0
2023-04-09T20:18:49.303Z,0
2023-04-09T20:24:06.550Z,0
2023-04-09T20:29:41.139Z,0
2023-04-09T20:34:58.642Z,0
2023-04-09T20:40:15.946Z,0
2023-04-09T20:45:33.518Z,0
2023-04-09T20:50:53.410Z,0
2023-04-09T20:56:11.131Z,0
2023-04-09T21:01:35.636Z,0
2023-04-09T21:06:53.065Z,0
2023-04-09T21:12:19.178Z,0
2023-04-09T21:17:36.661Z,0
2023-04-09T21:22:54.020Z,0
2023-04-09T21:28:11.580Z,0
2023-04-09T21:33:30.103Z,0
2023-04-09T21:38:49.977Z,0
2023-04-09T21:44:10.002Z,0
2023-04-09T21:49:27.666Z,0
2023-04-09T21:54:45.205Z,0
2023-04-09T22:00:02.492Z,0
2023-04-09T22:05:20.650Z,0
2023-04-09T22:16:01.740Z,0
2023-04-09T22:21:19.207Z,0
2023-04-09T22:26:36.788Z,0
2023-04-09T22:31:54.085Z,0
2023-04-09T22:37:11.580Z,0
2023-04-09T22:42:28.806Z,0
2023-04-09T22:47:46.215Z,0
2023-04-09T22:53:10.741Z,0
2023-04-09T22:58:28.857Z,0
2023-04-09T23:03:46.049Z,0
2023-04-09T23:09:03.502Z,0
2023-04-09T23:14:20.842Z,0
2023-04-09T23:19:38.421Z,0
2023-04-09T23:24:55.669Z,0
2023-04-09T23:30:13.126Z,0
2023-04-09T23:35:33.882Z,0
2023-04-09T23:40:51.351Z,0
2023-04-09T23:46:09.062Z,0
2023-04-09T23:51:26.399Z,0
2023-04-09T23:57:00.737Z,0
